Aviation Digital Data Service (ADDS)

Output produced by METARs form (1807 UTC 21 September 2014)
found at http://aviationweather.gov/adds/metars/
 
KLFT 211720Z 2118/2218 06006KT P6SM FEW050